Terminal Aerodrome Forecast
Issued by NWS

Home | Current Version | Previous Version | Graphics & Text | Print | Product List | Glossary On
Versions: 1 2 3 4 5 6 7 8 9 10 11 12 13 14 15 16 17
046
FTUS43 KFGF 270307 AAA
TAFBJI
TAF AMD
KBJI 270307Z 2703/2724 04011KT P6SM OVC022
      TEMPO 2703/2706 4SM -SN BR OVC011
     FM270600 01008KT P6SM OVC012
     FM271300 34009KT P6SM OVC008
     FM271800 33009KT P6SM OVC010=

USA.gov is the U.S. government's official web portal to all federal, state and local government web resources and services.